Angus, New Mexico
Current Conditions -  °F | °C
As of 12:51 AM on Friday 24 Oct 2014 (Local Time) from KROW Reporting Station
Clear Clear  
Wind Chill: 57°   Ceiling: Unl
Heat Index: 57°   Visibility: 10mi
Dew Point: 54°   Wind: 0mph
Humidity: 89%   Direction: NA
Pressure: 30.15"   Gusts: NA
Location:  33.7233°N, 105.25°W
Report Text: KROW 240651Z AUTO 00000KT 10SM CLR 14/12 A3015 RMK AO2 SLP165 T01390122 402610128
Loading
Personal Weather Stations






























Interactive Weather Map
Tropical Storm Tracking
New forecast layout! Learn more

10-Day Weather Forecast

Advertisements
Track Severe Weather on mobile